createdAt,value
2018-05-12T00:00:02.873Z,9.60
2018-05-12T00:02:30.377Z,9.23
2018-05-12T00:04:58.733Z,12.17
2018-05-12T00:07:26.235Z,7.90
2018-05-12T00:09:53.753Z,7.67
2018-05-12T00:12:21.255Z,9.53
2018-05-12T00:14:48.801Z,8.53
2018-05-12T00:17:17.081Z,7.53
2018-05-12T00:19:44.572Z,7.93
2018-05-12T00:22:12.091Z,9.47
2018-05-12T00:24:40.352Z,8.53
2018-05-12T00:27:07.915Z,8.83
2018-05-12T00:29:36.165Z,7.83
2018-05-12T00:32:03.681Z,8.93
2018-05-12T00:34:31.197Z,7.43
2018-05-12T00:36:58.731Z,12.10
2018-05-12T00:39:26.315Z,7.63
2018-05-12T00:41:53.857Z,7.47
2018-05-12T00:44:21.358Z,8.33
2018-05-12T00:46:48.941Z,9.83
2018-05-12T00:49:16.471Z,7.93
2018-05-12T00:51:44.824Z,8.90
2018-05-12T00:54:12.311Z,7.10
2018-05-12T00:56:40.600Z,7.60
2018-05-12T00:59:08.124Z,9.60
2018-05-12T01:01:36.392Z,8.63
2018-05-12T01:04:03.976Z,13.53
2018-05-12T01:06:32.307Z,8.07
2018-05-12T01:08:59.797Z,6.77
2018-05-12T01:11:28.104Z,12.93
2018-05-12T01:13:55.625Z,8.20
2018-05-12T01:16:23.174Z,8.80
2018-05-12T01:18:50.680Z,9.50
2018-05-12T01:21:18.191Z,9.20
2018-05-12T01:23:45.700Z,9.20
2018-05-12T01:26:13.201Z,11.10
2018-05-12T01:28:40.725Z,7.97
2018-05-12T01:31:08.196Z,8.13
2018-05-12T01:33:35.711Z,9.53
2018-05-12T01:36:03.273Z,11.73
2018-05-12T01:38:30.777Z,8.10
2018-05-12T01:40:58.284Z,7.63
2018-05-12T01:43:26.545Z,10.20
2018-05-12T01:45:54.825Z,8.33
2018-05-12T01:48:23.103Z,8.97
2018-05-12T01:50:51.375Z,8.20
2018-05-12T01:53:19.644Z,8.20
2018-05-12T01:55:47.203Z,7.67
2018-05-12T01:58:14.731Z,6.90
2018-05-12T02:00:42.395Z,12.57
2018-05-12T02:03:09.887Z,12.23
2018-05-12T02:05:38.192Z,12.20
2018-05-12T02:08:05.823Z,10.23
2018-05-12T02:10:34.117Z,7.97
2018-05-12T02:13:01.657Z,8.17
2018-05-12T02:15:29.201Z,8.70
2018-05-12T02:17:56.784Z,8.20
2018-05-12T02:20:25.039Z,8.47
2018-05-12T02:22:52.542Z,10.30
2018-05-12T02:25:20.037Z,7.77
2018-05-12T02:27:47.565Z,7.83
2018-05-12T02:30:15.055Z,9.07
2018-05-12T02:32:42.544Z,10.37
2018-05-12T02:35:10.924Z,10.93
2018-05-12T02:37:39.180Z,8.40
2018-05-12T02:40:06.970Z,7.93
2018-05-12T02:42:35.257Z,8.80
2018-05-12T02:45:02.759Z,7.57
2018-05-12T02:47:30.263Z,9.90
2018-05-12T02:49:58.495Z,8.73
2018-05-12T02:52:26.093Z,7.93
2018-05-12T02:54:54.409Z,9.00
2018-05-12T02:57:21.899Z,8.27
2018-05-12T02:59:49.429Z,8.73
2018-05-12T03:02:16.965Z,8.00
2018-05-12T03:04:44.458Z,7.70
2018-05-12T03:07:12.070Z,11.40
2018-05-12T03:09:43.609Z,13.53
2018-05-12T03:12:11.881Z,13.00
2018-05-12T03:14:40.305Z,10.67
2018-05-12T03:17:07.833Z,9.67
2018-05-12T03:19:36.099Z,9.27
2018-05-12T03:22:04.378Z,11.63
2018-05-12T03:24:32.311Z,9.00
2018-05-12T03:26:59.821Z,8.87
2018-05-12T03:29:27.321Z,9.50
2018-05-12T03:31:54.848Z,11.00
2018-05-12T03:34:22.381Z,11.63
2018-05-12T03:36:50.621Z,10.83
2018-05-12T03:39:18.112Z,14.57
2018-05-12T03:41:45.743Z,9.73
2018-05-12T03:44:13.200Z,12.17
2018-05-12T03:46:40.785Z,10.70
2018-05-12T03:49:09.081Z,11.50
2018-05-12T03:51:37.330Z,11.13
2018-05-12T03:54:04.842Z,9.40
2018-05-12T03:56:32.503Z,10.83
2018-05-12T03:59:00.013Z,9.50
2018-05-12T04:01:28.285Z,10.70
2018-05-12T04:03:56.614Z,10.33
2018-05-12T04:06:36.061Z,13.23
2018-05-12T04:09:15.557Z,10.50
2018-05-12T04:11:55.131Z,12.40
2018-05-12T04:14:22.763Z,10.27
2018-05-12T04:16:50.275Z,11.70
2018-05-12T04:19:17.777Z,9.75
2018-05-12T04:21:46.045Z,12.27
2018-05-12T04:24:13.596Z,12.73
2018-05-12T04:26:41.996Z,10.85
2018-05-12T04:29:09.670Z,12.27
2018-05-12T04:31:37.211Z,10.48
2018-05-12T04:34:04.721Z,13.60
2018-05-12T04:36:32.276Z,11.55
2018-05-12T04:38:59.758Z,9.95
2018-05-12T04:41:27.504Z,11.93
2018-05-12T04:43:55.021Z,10.37
2018-05-12T04:46:22.509Z,13.30
2018-05-12T04:48:50.023Z,14.27
2018-05-12T04:51:18.559Z,10.48
2018-05-12T04:53:46.065Z,11.47
2018-05-12T04:56:13.575Z,13.95
2018-05-12T04:58:41.200Z,14.50
2018-05-12T05:01:08.698Z,15.32
2018-05-12T05:03:36.169Z,10.65
2018-05-12T05:06:03.685Z,12.13
2018-05-12T05:08:31.189Z,10.32
2018-05-12T05:10:58.672Z,9.23
2018-05-12T05:13:26.232Z,12.25
2018-05-12T05:15:53.791Z,10.70
2018-05-12T05:18:21.298Z,10.05
2018-05-12T05:20:48.832Z,11.77
2018-05-12T05:23:16.542Z,13.60
2018-05-12T05:25:44.032Z,14.63
2018-05-12T05:28:11.561Z,14.40
2018-05-12T05:30:39.068Z,10.80
2018-05-12T05:33:06.600Z,11.60
2018-05-12T05:35:34.522Z,10.53
2018-05-12T05:38:02.122Z,12.17
2018-05-12T05:40:30.591Z,10.10
2018-05-12T05:43:02.711Z,10.40
2018-05-12T05:45:30.244Z,10.57
2018-05-12T05:47:57.744Z,9.60
2018-05-12T05:50:25.341Z,10.13
2018-05-12T05:52:53.616Z,9.70
2018-05-12T05:55:21.994Z,8.77
2018-05-12T05:57:50.344Z,10.30
2018-05-12T06:00:17.840Z,11.77
2018-05-12T06:02:45.347Z,9.30
2018-05-12T06:05:12.862Z,8.83
2018-05-12T06:07:40.362Z,8.77
2018-05-12T06:10:07.971Z,11.17
2018-05-12T06:12:36.249Z,9.00
2018-05-12T06:15:03.747Z,9.43
2018-05-12T06:17:31.245Z,9.00
2018-05-12T06:19:58.745Z,9.70
2018-05-12T06:22:26.241Z,9.33
2018-05-12T06:24:53.757Z,10.27
2018-05-12T06:27:22.005Z,10.03
2018-05-12T06:29:49.409Z,12.10
2018-05-12T06:32:16.921Z,8.73
2018-05-12T06:34:45.209Z,10.03
2018-05-12T06:37:12.702Z,8.90
2018-05-12T06:39:40.202Z,10.13
2018-05-12T06:42:07.737Z,10.67
2018-05-12T06:44:35.361Z,9.37
2018-05-12T06:47:02.901Z,11.03
2018-05-12T06:49:30.423Z,10.60
2018-05-12T06:51:58.681Z,11.27
2018-05-12T06:54:26.184Z,11.90
2018-05-12T06:56:54.466Z,11.07
2018-05-12T06:59:22.830Z,10.57
2018-05-12T07:01:51.137Z,10.40
2018-05-12T07:04:18.635Z,11.37
2018-05-12T07:06:46.160Z,10.30
2018-05-12T07:09:13.668Z,11.53
2018-05-12T07:11:41.931Z,11.23
2018-05-12T07:14:09.499Z,10.90
2018-05-12T07:16:37.775Z,13.83
2018-05-12T07:19:06.109Z,11.17
2018-05-12T07:21:33.617Z,12.07
2018-05-12T07:24:01.884Z,13.93
2018-05-12T07:26:30.197Z,11.77
2018-05-12T07:28:57.711Z,10.47
2018-05-12T07:31:26.701Z,13.20
2018-05-12T07:33:54.288Z,10.57
2018-05-12T07:36:21.750Z,11.33
2018-05-12T07:38:49.405Z,11.47
2018-05-12T07:41:17.676Z,10.83
2018-05-12T07:43:45.936Z,11.07
2018-05-12T07:46:14.640Z,12.17
2018-05-12T07:48:43.009Z,10.43
2018-05-12T07:51:12.618Z,10.33
2018-05-12T07:53:40.877Z,14.10
2018-05-12T07:56:08.357Z,9.37
2018-05-12T07:58:36.625Z,8.83
2018-05-12T08:01:04.887Z,9.77
2018-05-12T08:03:33.135Z,9.10
2018-05-12T08:06:00.605Z,9.53
2018-05-12T08:08:28.089Z,9.90
2018-05-12T08:10:56.369Z,9.67
2018-05-12T08:13:24.643Z,9.93
2018-05-12T08:15:52.924Z,8.87
2018-05-12T08:18:20.457Z,8.80
2018-05-12T08:20:48.857Z,10.40
2018-05-12T08:23:16.469Z,10.77
2018-05-12T08:25:44.060Z,9.87
2018-05-12T08:28:12.413Z,9.23
2018-05-12T08:30:40.020Z,8.83
2018-05-12T08:33:08.190Z,7.50
2018-05-12T08:35:35.696Z,9.63
2018-05-12T08:38:03.265Z,6.53
2018-05-12T08:40:30.963Z,8.30
2018-05-12T08:42:58.370Z,7.17
2018-05-12T08:45:25.924Z,7.20
2018-05-12T08:47:53.465Z,6.63
2018-05-12T08:50:20.977Z,8.00
2018-05-12T08:52:48.552Z,6.77
2018-05-12T08:55:16.895Z,8.10
2018-05-12T08:57:44.332Z,5.87
2018-05-12T09:00:11.833Z,6.80
2018-05-12T09:02:40.127Z,5.27
2018-05-12T09:05:07.610Z,7.10
2018-05-12T09:07:35.201Z,5.23
2018-05-12T09:10:02.693Z,5.70
2018-05-12T09:12:30.990Z,5.57
2018-05-12T09:14:58.530Z,6.20
2018-05-12T09:17:33.937Z,5.57
2018-05-12T09:20:01.585Z,6.33
2018-05-12T09:22:29.072Z,7.37
2018-05-12T09:24:56.642Z,6.73
2018-05-12T09:27:24.928Z,5.33
2018-05-12T09:29:52.418Z,5.33
2018-05-12T09:32:20.379Z,7.15
2018-05-12T09:34:47.860Z,5.90
2018-05-12T09:37:15.571Z,10.43
2018-05-12T09:39:43.112Z,10.00
2018-05-12T09:42:12.259Z,6.23
2018-05-12T09:44:39.697Z,5.47
2018-05-12T09:47:07.193Z,4.93
2018-05-12T09:49:34.715Z,5.97
2018-05-12T09:52:02.213Z,9.27
2018-05-12T09:54:29.705Z,6.40
2018-05-12T09:56:57.265Z,6.40
2018-05-12T09:59:25.547Z,8.10
2018-05-12T10:01:53.781Z,5.83
2018-05-12T10:04:21.273Z,8.93
2018-05-12T10:06:49.549Z,5.70
2018-05-12T10:09:17.841Z,7.33
2018-05-12T10:11:45.393Z,4.70
2018-05-12T10:14:13.009Z,6.17
2018-05-12T10:16:40.549Z,6.67
2018-05-12T10:19:08.442Z,6.87
2018-05-12T10:21:36.019Z,10.80
2018-05-12T10:24:04.297Z,7.20
2018-05-12T10:26:32.567Z,6.43
2018-05-12T10:29:01.542Z,6.43
2018-05-12T10:31:29.035Z,7.03
2018-05-12T10:33:56.562Z,9.37
2018-05-12T10:36:24.136Z,6.33
2018-05-12T10:38:52.554Z,7.73
2018-05-12T10:41:20.897Z,5.60
2018-05-12T10:43:49.148Z,6.87
2018-05-12T10:46:16.670Z,7.33
2018-05-12T10:48:44.290Z,9.70
2018-05-12T10:51:12.584Z,6.70
2018-05-12T10:53:40.224Z,5.77
2018-05-12T10:56:08.953Z,5.80
2018-05-12T10:58:48.330Z,5.70
2018-05-12T11:01:15.905Z,4.80
2018-05-12T11:03:44.492Z,7.30
2018-05-12T11:06:12.765Z,5.40
2018-05-12T11:08:41.059Z,7.50
2018-05-12T11:11:08.543Z,5.43
2018-05-12T11:13:36.052Z,12.27
2018-05-12T11:16:04.711Z,6.40
2018-05-12T11:18:32.593Z,7.13
2018-05-12T11:21:00.482Z,7.20
2018-05-12T11:23:32.028Z,7.40
2018-05-12T11:26:00.300Z,6.33
2018-05-12T11:28:28.560Z,6.30
2018-05-12T11:30:56.151Z,5.80
2018-05-12T11:33:23.636Z,7.40
2018-05-12T11:35:51.872Z,7.97
2018-05-12T11:38:20.580Z,7.50
2018-05-12T11:40:48.108Z,7.30
2018-05-12T11:43:16.397Z,8.10
2018-05-12T11:45:43.934Z,5.70
2018-05-12T11:48:11.805Z,5.57
2018-05-12T11:50:40.362Z,5.57
2018-05-12T11:53:07.882Z,6.80
2018-05-12T11:55:35.387Z,5.87
2018-05-12T11:58:02.898Z,5.70
2018-05-12T12:00:30.414Z,4.60
2018-05-12T12:02:58.703Z,6.17
2018-05-12T12:05:27.019Z,6.73
2018-05-12T12:07:54.523Z,10.10
2018-05-12T12:10:22.790Z,5.77
2018-05-12T12:12:50.285Z,7.43
2018-05-12T12:15:17.831Z,8.30
2018-05-12T12:17:46.092Z,7.10
2018-05-12T12:20:14.344Z,7.70
2018-05-12T12:22:41.926Z,10.30
2018-05-12T12:25:09.476Z,8.17
2018-05-12T12:27:36.966Z,6.00
2018-05-12T12:30:04.458Z,5.40
2018-05-12T12:32:33.496Z,7.13
2018-05-12T12:35:01.880Z,9.17
2018-05-12T12:37:30.161Z,10.07
2018-05-12T12:39:58.580Z,7.63
2018-05-12T12:42:26.133Z,6.93
2018-05-12T12:44:53.618Z,6.13
2018-05-12T12:47:21.129Z,6.60
2018-05-12T12:49:48.650Z,7.90
2018-05-12T12:52:18.603Z,8.60
2018-05-12T12:54:46.971Z,6.63
2018-05-12T12:57:15.340Z,7.80
2018-05-12T12:59:43.642Z,7.47
2018-05-12T13:02:11.152Z,7.70
2018-05-12T13:04:38.663Z,6.10
2018-05-12T13:07:06.165Z,6.23
2018-05-12T13:09:33.682Z,5.23
2018-05-12T13:12:01.182Z,8.00
2018-05-12T13:14:28.681Z,5.23
2018-05-12T13:16:56.258Z,5.80
2018-05-12T13:19:24.139Z,8.50
2018-05-12T13:21:51.681Z,7.30
2018-05-12T13:24:19.239Z,5.40
2018-05-12T13:26:46.727Z,8.27
2018-05-12T13:29:14.271Z,6.00
2018-05-12T13:31:41.927Z,5.60
2018-05-12T13:34:09.627Z,6.33
2018-05-12T13:36:37.144Z,5.63
2018-05-12T13:39:05.525Z,6.13
2018-05-12T13:41:33.257Z,5.47
2018-05-12T13:44:02.237Z,7.43
2018-05-12T13:46:30.631Z,8.60
2018-05-12T13:48:58.165Z,6.20
2018-05-12T13:51:26.537Z,6.40
2018-05-12T13:53:54.079Z,9.90
2018-05-12T13:56:21.988Z,7.90
2018-05-12T13:58:49.538Z,5.87
2018-05-12T14:01:17.875Z,9.77
2018-05-12T14:03:45.383Z,5.60
2018-05-12T14:06:12.961Z,6.23
2018-05-12T14:08:41.014Z,6.60
2018-05-12T14:11:18.545Z,8.33
2018-05-12T14:13:46.081Z,5.47
2018-05-12T14:16:13.690Z,6.70
2018-05-12T14:18:41.904Z,5.73
2018-05-12T14:21:09.428Z,5.97
2018-05-12T14:23:37.306Z,6.23
2018-05-12T14:26:05.597Z,6.47
2018-05-12T14:28:33.334Z,6.27
2018-05-12T14:31:02.557Z,5.70
2018-05-12T14:33:30.173Z,6.10
2018-05-12T14:35:57.785Z,7.10
2018-05-12T14:38:25.347Z,6.83
2018-05-12T14:40:52.875Z,9.63
2018-05-12T14:43:20.841Z,7.37
2018-05-12T14:45:48.378Z,6.57
2018-05-12T14:48:15.941Z,5.70
2018-05-12T14:50:44.226Z,6.70
2018-05-12T14:53:12.607Z,7.57
2018-05-12T14:55:40.269Z,6.17
2018-05-12T14:58:07.817Z,6.37
2018-05-12T15:00:35.916Z,10.20
2018-05-12T15:03:04.173Z,7.27
2018-05-12T15:05:31.841Z,6.30
2018-05-12T15:07:59.349Z,5.40
2018-05-12T15:10:27.069Z,6.13
2018-05-12T15:12:55.397Z,6.93
2018-05-12T15:15:22.924Z,5.60
2018-05-12T15:17:50.421Z,9.00
2018-05-12T15:20:17.977Z,5.90
2018-05-12T15:22:45.513Z,7.73
2018-05-12T15:25:18.219Z,5.90
2018-05-12T15:27:45.869Z,6.43
2018-05-12T15:30:13.390Z,9.17
2018-05-12T15:32:41.745Z,6.93
2018-05-12T15:35:10.017Z,5.90
2018-05-12T15:37:37.588Z,7.93
2018-05-12T15:40:05.982Z,7.10
2018-05-12T15:42:34.256Z,5.67
2018-05-12T15:45:02.553Z,12.43
2018-05-12T15:47:30.044Z,7.67
2018-05-12T15:49:57.577Z,7.70
2018-05-12T15:52:25.073Z,7.77
2018-05-12T15:54:52.597Z,5.63
2018-05-12T15:57:20.174Z,5.77
2018-05-12T15:59:47.569Z,6.40
2018-05-12T16:02:15.944Z,6.57
2018-05-12T16:04:44.324Z,11.03
2018-05-12T16:07:12.600Z,7.00
2018-05-12T16:09:40.873Z,8.97
2018-05-12T16:12:09.349Z,6.57
2018-05-12T16:14:37.545Z,7.63
2018-05-12T16:17:05.100Z,10.07
2018-05-12T16:19:33.911Z,7.90
2018-05-12T16:22:01.397Z,6.70
2018-05-12T16:24:29.031Z,6.63
2018-05-12T16:26:57.286Z,6.93
2018-05-12T16:29:24.809Z,9.57
2018-05-12T16:31:52.306Z,6.40
2018-05-12T16:34:19.812Z,6.93
2018-05-12T16:36:47.364Z,6.83
2018-05-12T16:39:15.270Z,7.47
2018-05-12T16:41:43.748Z,6.90
2018-05-12T16:44:12.071Z,6.37
2018-05-12T16:46:39.560Z,6.90
2018-05-12T16:49:07.058Z,6.73
2018-05-12T16:51:35.350Z,6.37
2018-05-12T16:54:02.897Z,7.57
2018-05-12T16:56:31.535Z,6.57
2018-05-12T16:58:59.054Z,7.53
2018-05-12T17:01:27.613Z,6.53
2018-05-12T17:03:55.165Z,5.70
2018-05-12T17:06:23.578Z,7.20
2018-05-12T17:08:51.913Z,8.77
2018-05-12T17:11:20.230Z,6.17
2018-05-12T17:13:47.786Z,7.07
2018-05-12T17:16:16.650Z,6.60
2018-05-12T17:18:44.172Z,9.60
2018-05-12T17:21:11.711Z,6.07
2018-05-12T17:23:39.318Z,5.73
2018-05-12T17:26:07.934Z,9.60
2018-05-12T17:28:37.001Z,7.23
2018-05-12T17:31:04.858Z,6.93
2018-05-12T17:33:32.557Z,5.87
2018-05-12T17:36:00.453Z,6.40
2018-05-12T17:38:28.893Z,6.27
2018-05-12T17:40:56.528Z,5.83
2018-05-12T17:43:24.857Z,10.77
2018-05-12T17:45:53.181Z,5.63
2018-05-12T17:48:21.956Z,5.73
2018-05-12T17:50:49.525Z,6.50
2018-05-12T17:53:18.389Z,5.77
2018-05-12T17:55:45.901Z,5.87
2018-05-12T17:58:15.850Z,6.00
2018-05-12T18:00:43.332Z,6.20
2018-05-12T18:03:10.885Z,5.77
2018-05-12T18:05:39.439Z,8.17
2018-05-12T18:08:07.081Z,5.57
2018-05-12T18:10:34.661Z,6.90
2018-05-12T18:13:02.165Z,6.27
2018-05-12T18:15:30.437Z,6.13
2018-05-12T18:17:58.812Z,6.20
2018-05-12T18:20:26.315Z,5.40
2018-05-12T18:22:53.823Z,5.53
2018-05-12T18:25:22.197Z,7.33
2018-05-12T18:27:52.097Z,5.93
2018-05-12T18:30:21.304Z,5.77
2018-05-12T18:32:49.641Z,6.33
2018-05-12T18:35:17.173Z,6.10
2018-05-12T18:37:44.721Z,6.10
2018-05-12T18:40:12.227Z,6.57
2018-05-12T18:42:39.774Z,6.60
2018-05-12T18:45:07.329Z,7.57
2018-05-12T18:47:34.855Z,5.67
2018-05-12T18:50:02.453Z,9.80
2018-05-12T18:52:29.997Z,10.83
2018-05-12T18:54:57.509Z,5.93
2018-05-12T18:57:25.821Z,7.00
2018-05-12T18:59:53.365Z,6.23
2018-05-12T19:02:21.665Z,6.83
2018-05-12T19:04:49.175Z,6.17
2018-05-12T19:07:16.641Z,8.60
2018-05-12T19:09:45.090Z,8.00
2018-05-12T19:12:13.297Z,6.53
2018-05-12T19:14:41.627Z,6.83
2018-05-12T19:17:09.289Z,6.63
2018-05-12T19:19:37.541Z,6.60
2018-05-12T19:22:05.122Z,7.10
2018-05-12T19:24:32.636Z,6.67
2018-05-12T19:27:00.918Z,6.10
2018-05-12T19:29:28.699Z,6.53
2018-05-12T19:31:56.196Z,6.53
2018-05-12T19:34:24.464Z,6.40
2018-05-12T19:36:52.050Z,7.67
2018-05-12T19:39:20.657Z,8.30
2018-05-12T19:41:48.197Z,11.60
2018-05-12T19:44:16.583Z,7.30
2018-05-12T19:46:44.157Z,6.70
2018-05-12T19:49:12.744Z,12.77
2018-05-12T19:51:40.404Z,18.50
2018-05-12T19:54:07.978Z,7.80
2018-05-12T19:56:35.507Z,7.40
2018-05-12T19:59:03.774Z,10.53
2018-05-12T20:01:33.056Z,7.03
2018-05-12T20:04:10.524Z,7.10
2018-05-12T20:06:38.974Z,7.30
2018-05-12T20:09:06.547Z,7.60
2018-05-12T20:11:34.167Z,7.03
2018-05-12T20:14:02.481Z,8.53
2018-05-12T20:16:30.050Z,7.50
2018-05-12T20:18:57.662Z,6.93
2018-05-12T20:21:26.032Z,7.93
2018-05-12T20:23:55.481Z,7.40
2018-05-12T20:26:23.195Z,7.17
2018-05-12T20:28:52.083Z,7.47
2018-05-12T20:31:19.663Z,6.93
2018-05-12T20:33:48.600Z,7.03
2018-05-12T20:36:19.268Z,7.10
2018-05-12T20:38:46.845Z,7.23
2018-05-12T20:41:25.169Z,9.63
2018-05-12T20:43:52.675Z,8.50
2018-05-12T20:46:20.260Z,7.80
2018-05-12T20:48:47.897Z,7.40
2018-05-12T20:51:15.512Z,7.63
2018-05-12T20:53:43.054Z,7.07
2018-05-12T20:56:11.378Z,7.20
2018-05-12T20:58:38.897Z,7.43
2018-05-12T21:01:07.588Z,7.10
2018-05-12T21:03:35.161Z,7.00
2018-05-12T21:06:02.965Z,7.90
2018-05-12T21:08:31.372Z,10.00
2018-05-12T21:10:59.753Z,7.80
2018-05-12T21:13:30.764Z,9.23
2018-05-12T21:15:58.245Z,8.07
2018-05-12T21:18:25.757Z,8.40
2018-05-12T21:20:53.243Z,10.83
2018-05-12T21:23:21.525Z,7.00
2018-05-12T21:25:50.211Z,7.00
2018-05-12T21:28:18.469Z,7.37
2018-05-12T21:30:45.990Z,7.40
2018-05-12T21:33:13.533Z,6.80
2018-05-12T21:35:41.038Z,8.90
2018-05-12T21:38:09.827Z,7.47
2018-05-12T21:40:37.355Z,8.20
2018-05-12T21:43:04.854Z,7.17
2018-05-12T21:45:32.445Z,6.67
2018-05-12T21:48:00.058Z,6.77
2018-05-12T21:50:27.543Z,7.27
2018-05-12T21:52:56.577Z,7.40
2018-05-12T21:55:24.414Z,7.20
2018-05-12T21:57:52.026Z,10.10
2018-05-12T22:00:19.550Z,7.53
2018-05-12T22:02:47.124Z,6.47
2018-05-12T22:05:14.670Z,9.03
2018-05-12T22:07:42.239Z,7.50
2018-05-12T22:10:09.686Z,6.60
2018-05-12T22:12:37.222Z,6.87
2018-05-12T22:15:04.712Z,8.13
2018-05-12T22:17:32.631Z,12.23
2018-05-12T22:20:00.927Z,6.90
2018-05-12T22:22:29.268Z,6.70
2018-05-12T22:24:57.660Z,6.23
2018-05-12T22:27:25.150Z,7.57
2018-05-12T22:29:52.680Z,7.07
2018-05-12T22:32:20.224Z,10.53
2018-05-12T22:34:49.949Z,6.70
2018-05-12T22:37:18.323Z,7.60
2018-05-12T22:39:45.841Z,9.50
2018-05-12T22:42:13.483Z,7.83
2018-05-12T22:44:40.995Z,8.47
2018-05-12T22:47:10.056Z,11.20
2018-05-12T22:49:37.599Z,11.30
2018-05-12T22:52:05.184Z,9.00
2018-05-12T22:54:32.743Z,8.23
2018-05-12T22:57:00.261Z,11.63
2018-05-12T22:59:27.751Z,10.20
2018-05-12T23:01:55.282Z,10.93
2018-05-12T23:04:22.914Z,11.63
2018-05-12T23:06:51.705Z,12.13
2018-05-12T23:09:19.251Z,10.20
2018-05-12T23:11:47.668Z,10.23
2018-05-12T23:14:15.266Z,10.60
2018-05-12T23:16:42.959Z,39.47
2018-05-12T23:19:11.311Z,23.07
2018-05-12T23:21:38.892Z,25.00
2018-05-12T23:24:07.187Z,16.53
2018-05-12T23:26:34.717Z,14.80
2018-05-12T23:29:03.178Z,22.70
2018-05-12T23:31:31.721Z,30.63
2018-05-12T23:33:59.247Z,25.33
2018-05-12T23:36:27.511Z,22.77
2018-05-12T23:38:55.037Z,20.33
2018-05-12T23:41:32.680Z,20.20
2018-05-12T23:44:01.058Z,13.20
2018-05-12T23:46:29.329Z,18.13
2018-05-12T23:48:57.611Z,13.30
2018-05-12T23:51:25.953Z,12.23
2018-05-12T23:53:53.449Z,10.77
2018-05-12T23:56:20.972Z,12.13
2018-05-12T23:58:48.487Z,11.30
